createdAt,value
2019-05-22T00:02:37.679Z,100632.80
2019-05-22T00:06:05.189Z,100636.63
2019-05-22T00:09:24.350Z,100636.63
2019-05-22T00:12:46.266Z,100630.47
2019-05-22T00:15:44.126Z,100634.34
2019-05-22T00:18:52.543Z,100626.14
2019-05-22T00:22:10.327Z,100628.88
2019-05-22T00:25:35.704Z,100640.16
2019-05-22T00:28:43.166Z,100636.08
2019-05-22T00:31:49.569Z,100637.95
2019-05-22T00:35:09.692Z,100640.72
2019-05-22T00:38:28.871Z,100632.01
2019-05-22T00:41:35.506Z,100636.87
2019-05-22T00:44:44.188Z,100633.84
2019-05-22T00:47:53.017Z,100639.00
2019-05-22T00:51:22.310Z,100645.25
2019-05-22T00:55:07.310Z,100648.67
2019-05-22T00:58:32.399Z,100651.44
2019-05-22T01:01:46.212Z,100647.98
2019-05-22T01:04:54.250Z,100653.22
2019-05-22T01:08:15.994Z,100650.55
2019-05-22T01:11:34.079Z,100649.63
2019-05-22T01:14:53.363Z,100662.23
2019-05-22T01:18:16.622Z,100664.59
2019-05-22T01:21:38.239Z,100660.48
2019-05-22T01:24:46.983Z,100668.88
2019-05-22T01:28:05.749Z,100674.98
2019-05-22T01:31:19.444Z,100683.02
2019-05-22T01:34:30.105Z,100683.39
2019-05-22T01:37:36.623Z,100681.92
2019-05-22T01:40:52.033Z,100688.95
2019-05-22T01:44:03.320Z,100687.81
2019-05-22T01:47:16.759Z,100687.81
2019-05-22T01:50:46.976Z,100682.98
2019-05-22T01:53:54.358Z,100684.78
2019-05-22T01:57:06.983Z,100683.47
2019-05-22T02:00:24.240Z,100683.84
2019-05-22T02:03:40.869Z,100681.72
2019-05-22T02:06:47.940Z,100687.55
2019-05-22T02:10:06.721Z,100688.25
2019-05-22T02:13:14.619Z,100688.83
2019-05-22T02:16:22.570Z,100695.97
2019-05-22T02:19:40.962Z,100689.41
2019-05-22T02:22:50.092Z,100695.67
2019-05-22T02:26:00.017Z,100692.44
2019-05-22T02:29:08.513Z,100689.74
2019-05-22T02:32:17.727Z,100695.03
2019-05-22T02:35:25.418Z,100703.21
2019-05-22T02:38:31.763Z,100699.26
2019-05-22T02:41:46.058Z,100700.23
2019-05-22T02:44:53.829Z,100704.27
2019-05-22T02:48:13.855Z,100704.83
2019-05-22T02:51:20.733Z,100713.61
2019-05-22T02:54:31.514Z,100706.17
2019-05-22T02:57:39.083Z,100714.98
2019-05-22T03:01:02.693Z,100707.23
2019-05-22T03:04:11.774Z,100707.36
2019-05-22T03:07:19.909Z,100708.55
2019-05-22T03:10:29.526Z,100707.72
2019-05-22T03:13:59.816Z,100705.52
2019-05-22T03:17:09.710Z,100704.23
2019-05-22T03:20:19.381Z,100695.03
2019-05-22T03:23:37.961Z,100705.32
2019-05-22T03:26:48.763Z,100709.30
2019-05-22T03:29:56.366Z,100708.95
2019-05-22T03:33:05.862Z,100710.88
2019-05-22T03:36:17.860Z,100707.84
2019-05-22T03:39:25.587Z,100709.84
2019-05-22T03:42:34.053Z,100720.73
2019-05-22T03:45:41.890Z,100727.70
2019-05-22T03:48:49.346Z,100734.97
2019-05-22T03:52:09.672Z,100735.58
2019-05-22T03:55:18.032Z,100739.38
2019-05-22T03:58:25.753Z,100738.54
2019-05-22T04:01:33.293Z,100751.53
2019-05-22T04:04:42.076Z,100743.80
2019-05-22T04:07:49.862Z,100751.02
2019-05-22T04:11:08.391Z,100753.33
2019-05-22T04:14:15.962Z,100759.85
2019-05-22T04:17:35.080Z,100755.45
2019-05-22T04:20:41.988Z,100757.82
2019-05-22T04:23:49.491Z,100763.88
2019-05-22T04:27:07.430Z,100758.65
2019-05-22T04:30:15.591Z,100761.70
2019-05-22T04:33:32.311Z,100770.69
2019-05-22T04:36:55.194Z,100773.03
2019-05-22T04:40:54.320Z,100784.02
2019-05-22T04:44:11.658Z,100779.07
2019-05-22T04:47:19.939Z,100783.55
2019-05-22T04:50:37.529Z,100790.36
2019-05-22T04:53:45.021Z,100794.81
2019-05-22T04:56:53.507Z,100800.59
2019-05-22T05:00:00.846Z,100801.33
2019-05-22T05:03:08.818Z,100813.98
2019-05-22T05:06:17.858Z,100805.73
2019-05-22T05:09:36.711Z,100803.91
2019-05-22T05:12:53.604Z,100804.28
2019-05-22T05:16:10.721Z,100809.42
2019-05-22T05:19:29.366Z,100810.02
2019-05-22T05:22:52.188Z,100811.86
2019-05-22T05:26:09.036Z,100815.34
2019-05-22T05:29:33.437Z,100818.05
2019-05-22T05:32:41.204Z,100826.02
2019-05-22T05:35:49.253Z,100831.24
2019-05-22T05:38:56.340Z,100827.06
2019-05-22T05:42:03.981Z,100833.41
2019-05-22T05:45:13.602Z,100838.55
2019-05-22T05:48:24.483Z,100835.94
2019-05-22T05:51:40.466Z,100842.66
2019-05-22T05:54:59.946Z,100837.27
2019-05-22T05:58:26.470Z,100842.37
2019-05-22T06:01:36.579Z,100845.52
2019-05-22T06:04:43.960Z,100852.70
2019-05-22T06:07:51.494Z,100858.23
2019-05-22T06:11:39.145Z,100855.45
2019-05-22T06:14:57.710Z,100864.06
2019-05-22T06:18:34.325Z,100877.07
2019-05-22T06:21:49.177Z,100880.80
2019-05-22T06:24:58.296Z,100878.68
2019-05-22T06:28:06.028Z,100873.37
2019-05-22T06:31:35.284Z,100872.45
2019-05-22T06:34:42.486Z,100877.16
2019-05-22T06:37:58.493Z,100883.05
2019-05-22T06:41:06.800Z,100887.45
2019-05-22T06:44:56.209Z,100890.47
2019-05-22T06:48:03.614Z,100895.78
2019-05-22T06:51:19.054Z,100886.08
2019-05-22T06:54:20.024Z,100892.47
2019-05-22T06:57:28.489Z,100898.81
2019-05-22T07:00:36.244Z,100916.91
2019-05-22T07:03:42.491Z,100911.06
2019-05-22T07:06:50.288Z,100914.34
2019-05-22T07:09:57.809Z,100914.34
2019-05-22T07:13:05.686Z,100921.52
2019-05-22T07:16:13.077Z,100922.56
2019-05-22T07:19:22.553Z,100920.98
2019-05-22T07:22:30.085Z,100925.59
2019-05-22T07:25:52.290Z,100929.62
2019-05-22T07:29:01.694Z,100941.28
2019-05-22T07:32:18.741Z,100929.00
2019-05-22T07:35:45.711Z,100948.63
2019-05-22T07:38:36.508Z,100951.34
2019-05-22T07:41:53.922Z,100942.78
2019-05-22T07:45:01.302Z,100956.94
2019-05-22T07:48:09.727Z,100957.23
2019-05-22T07:51:18.030Z,100957.86
2019-05-22T07:54:25.549Z,100961.26
2019-05-22T07:57:44.525Z,100972.02
2019-05-22T08:01:02.279Z,100977.99
2019-05-22T08:04:10.338Z,100979.44
2019-05-22T08:07:20.161Z,100978.37
2019-05-22T08:10:40.715Z,100975.25
2019-05-22T08:13:48.280Z,100975.25
2019-05-22T08:16:55.821Z,100989.03
2019-05-22T08:20:12.805Z,100979.81
2019-05-22T08:23:20.726Z,100990.78
2019-05-22T08:26:29.143Z,100984.52
2019-05-22T08:29:37.156Z,100991.98
2019-05-22T08:32:54.664Z,100990.95
2019-05-22T08:36:03.131Z,100999.41
2019-05-22T08:39:11.452Z,101005.23
2019-05-22T08:42:19.446Z,101012.95
2019-05-22T08:45:27.916Z,101013.03
2019-05-22T08:48:36.287Z,101022.30
2019-05-22T08:51:59.735Z,101027.66
2019-05-22T08:55:08.313Z,101031.30
2019-05-22T08:58:15.554Z,101033.05
2019-05-22T09:01:22.526Z,101033.05
2019-05-22T09:04:39.033Z,101042.28
2019-05-22T09:07:56.079Z,101046.89
2019-05-22T09:11:12.782Z,101049.68
2019-05-22T09:14:29.598Z,101047.89
2019-05-22T09:17:47.488Z,101051.38
2019-05-22T09:20:55.235Z,101066.20
2019-05-22T09:24:16.690Z,101069.24
2019-05-22T09:27:24.370Z,101075.68
2019-05-22T09:30:31.778Z,101072.19
2019-05-22T09:33:48.768Z,101074.02
2019-05-22T09:36:55.096Z,101082.71
2019-05-22T09:40:02.777Z,101077.02
2019-05-22T09:43:25.578Z,101078.41
2019-05-22T09:46:42.466Z,101078.94
2019-05-22T09:50:00.376Z,101088.33
2019-05-22T09:53:09.211Z,101095.84
2019-05-22T09:56:16.963Z,101096.21
2019-05-22T09:59:22.781Z,101089.86
2019-05-22T10:02:39.529Z,101099.22
2019-05-22T10:05:56.350Z,101106.07
2019-05-22T10:09:02.429Z,101105.23
2019-05-22T10:12:09.923Z,101100.92
2019-05-22T10:15:18.605Z,101109.23
2019-05-22T10:18:26.234Z,101106.05
2019-05-22T10:21:34.120Z,101109.98
2019-05-22T10:24:42.112Z,101108.58
2019-05-22T10:27:49.903Z,101117.43
2019-05-22T10:31:08.032Z,101122.63
2019-05-22T10:34:25.633Z,101126.29
2019-05-22T10:37:33.029Z,101126.58
2019-05-22T10:40:40.431Z,101128.58
2019-05-22T10:43:48.205Z,101127.41
2019-05-22T10:46:54.022Z,101131.61
2019-05-22T10:50:11.467Z,101139.55
2019-05-22T10:53:33.839Z,101138.55
2019-05-22T10:56:46.857Z,101136.89
2019-05-22T11:00:13.032Z,101134.31
2019-05-22T11:03:32.509Z,101135.44
2019-05-22T11:06:40.950Z,101138.72
2019-05-22T11:09:48.511Z,101142.58
2019-05-22T11:12:56.059Z,101146.28
2019-05-22T11:16:13.644Z,101144.70
2019-05-22T11:19:31.071Z,101145.00
2019-05-22T11:22:37.974Z,101150.16
2019-05-22T11:25:55.176Z,101151.98
2019-05-22T11:29:03.670Z,101153.19
2019-05-22T11:32:21.057Z,101157.86
2019-05-22T11:35:39.090Z,101163.92
2019-05-22T11:38:46.642Z,101172.87
2019-05-22T11:41:53.268Z,101169.78
2019-05-22T11:45:00.696Z,101176.44
2019-05-22T11:48:08.748Z,101174.52
2019-05-22T11:51:15.159Z,101169.47
2019-05-22T11:54:22.824Z,101179.70
2019-05-22T11:57:30.281Z,101171.34
2019-05-22T12:00:47.796Z,101171.41
2019-05-22T12:03:55.264Z,101186.06
2019-05-22T12:07:04.290Z,101186.96
2019-05-22T12:10:12.340Z,101189.75
2019-05-22T12:13:19.725Z,101198.44
2019-05-22T12:16:28.070Z,101190.02
2019-05-22T12:19:35.795Z,101193.95
2019-05-22T12:22:43.289Z,101198.94
2019-05-22T12:25:49.036Z,101205.59
2019-05-22T12:28:56.475Z,101205.75
2019-05-22T12:32:14.455Z,101207.01
2019-05-22T12:35:22.126Z,101215.64
2019-05-22T12:38:39.706Z,101202.79
2019-05-22T12:41:48.736Z,101211.37
2019-05-22T12:44:56.098Z,101203.41
2019-05-22T12:48:05.077Z,101214.29
2019-05-22T12:51:11.173Z,101219.00
2019-05-22T12:54:45.349Z,101222.92
2019-05-22T12:57:48.952Z,101214.17
2019-05-22T13:00:56.703Z,101211.21
2019-05-22T13:04:04.749Z,101210.86
2019-05-22T13:07:12.039Z,101215.56
2019-05-22T13:10:19.768Z,101219.84
2019-05-22T13:13:27.452Z,101218.29
2019-05-22T13:16:48.838Z,101214.78
2019-05-22T13:19:53.534Z,101221.33
2019-05-22T13:23:01.830Z,101219.58
2019-05-22T13:26:18.970Z,101209.98
2019-05-22T13:29:37.790Z,101210.53
2019-05-22T13:32:45.316Z,101226.13
2019-05-22T13:35:52.924Z,101224.55
2019-05-22T13:39:00.686Z,101218.61
2019-05-22T13:42:08.339Z,101231.90
2019-05-22T13:45:28.494Z,101233.96
2019-05-22T13:48:40.897Z,101232.03
2019-05-22T13:52:06.449Z,101235.72
2019-05-22T13:55:23.229Z,101238.30
2019-05-22T13:58:57.191Z,101240.05
2019-05-22T14:02:45.067Z,101247.02
2019-05-22T14:10:34.724Z,101254.77
2019-05-22T14:14:11.262Z,101256.44
2019-05-22T14:17:46.026Z,101261.60
2019-05-22T14:21:41.155Z,101267.09
2019-05-22T14:25:13.317Z,101264.64
2019-05-22T14:30:53.815Z,101263.13
2019-05-22T14:32:58.354Z,101267.75
2019-05-22T14:40:27.558Z,101265.53
2019-05-22T14:44:53.740Z,101268.77
2019-05-22T14:49:07.942Z,101261.42
2019-05-22T14:52:54.539Z,101260.23
2019-05-22T14:56:40.608Z,101263.11
2019-05-22T15:00:21.894Z,101264.25
2019-05-22T15:04:32.787Z,101266.89
2019-05-22T15:12:16.101Z,101266.30
2019-05-22T15:15:48.446Z,101260.58
2019-05-22T15:18:55.406Z,101261.72
2019-05-22T15:22:02.541Z,101257.98
2019-05-22T15:25:20.728Z,101255.16
2019-05-22T15:28:28.552Z,101261.25
2019-05-22T15:31:46.158Z,101260.17
2019-05-22T15:35:03.618Z,101252.04
2019-05-22T15:38:12.477Z,101256.38
2019-05-22T15:41:20.122Z,101254.28
2019-05-22T15:44:28.136Z,101264.72
2019-05-22T15:47:52.593Z,101254.49
2019-05-22T15:50:46.762Z,101257.07
2019-05-22T15:54:05.574Z,101257.83
2019-05-22T15:57:14.759Z,101255.43
2019-05-22T16:00:24.311Z,101258.50
2019-05-22T16:03:43.136Z,101261.44
2019-05-22T16:06:51.583Z,101264.86
2019-05-22T16:09:58.954Z,101260.45
2019-05-22T16:13:06.641Z,101265.06
2019-05-22T16:16:16.654Z,101261.80
2019-05-22T16:19:24.585Z,101257.46
2019-05-22T16:22:31.533Z,101259.62
2019-05-22T16:25:39.997Z,101266.52
2019-05-22T16:28:49.413Z,101265.62
2019-05-22T16:32:09.829Z,101264.97
2019-05-22T16:35:17.390Z,101265.78
2019-05-22T16:38:25.451Z,101273.55
2019-05-22T16:41:43.052Z,101266.62
2019-05-22T16:44:50.526Z,101269.12
2019-05-22T16:47:59.838Z,101273.20
2019-05-22T16:51:08.373Z,101279.19
2019-05-22T16:54:20.399Z,101279.55
2019-05-22T16:57:26.367Z,101276.88
2019-05-22T17:00:34.499Z,101278.70
2019-05-22T17:03:41.966Z,101291.18
2019-05-22T17:06:49.458Z,101287.55
2019-05-22T17:09:57.174Z,101291.24
2019-05-22T17:13:15.614Z,101287.73
2019-05-22T17:16:23.348Z,101289.45
2019-05-22T17:19:40.631Z,101288.63
2019-05-22T17:22:57.845Z,101299.13
2019-05-22T17:26:14.807Z,101290.08
2019-05-22T17:29:22.382Z,101300.88
2019-05-22T17:32:29.753Z,101300.86
2019-05-22T17:35:37.610Z,101291.13
2019-05-22T17:38:56.510Z,101297.97
2019-05-22T17:42:15.883Z,101292.32
2019-05-22T17:45:25.648Z,101297.70
2019-05-22T17:48:34.090Z,101294.37
2019-05-22T17:51:51.427Z,101291.14
2019-05-22T17:54:59.462Z,101305.14
2019-05-22T17:58:07.129Z,101298.17
2019-05-22T18:01:24.395Z,101301.53
2019-05-22T18:04:41.527Z,101297.97
2019-05-22T18:07:59.138Z,101297.78
2019-05-22T18:11:08.343Z,101310.05
2019-05-22T18:14:16.116Z,101310.52
2019-05-22T18:17:33.485Z,101305.77
2019-05-22T18:20:43.439Z,101303.40
2019-05-22T18:23:48.592Z,101315.34
2019-05-22T18:26:54.859Z,101318.59
2019-05-22T18:30:12.265Z,101312.22
2019-05-22T18:33:19.604Z,101323.45
2019-05-22T18:36:27.171Z,101326.94
2019-05-22T18:39:34.863Z,101321.90
2019-05-22T18:42:42.539Z,101323.88
2019-05-22T18:45:50.019Z,101320.30
2019-05-22T18:48:57.957Z,101330.39
2019-05-22T18:52:05.028Z,101328.19
2019-05-22T18:55:12.428Z,101334.09
2019-05-22T18:58:29.702Z,101334.77
2019-05-22T19:01:37.305Z,101341.11
2019-05-22T19:04:44.743Z,101340.93
2019-05-22T19:07:52.251Z,101348.89
2019-05-22T19:10:58.511Z,101346.55
2019-05-22T19:14:06.575Z,101350.33
2019-05-22T19:17:14.126Z,101352.18
2019-05-22T19:20:31.205Z,101353.00
2019-05-22T19:23:48.118Z,101356.36
2019-05-22T19:27:10.949Z,101363.94
2019-05-22T19:30:28.018Z,101362.03
2019-05-22T19:33:35.326Z,101362.52
2019-05-22T19:36:42.807Z,101356.55
2019-05-22T19:39:50.718Z,101362.67
2019-05-22T19:43:11.733Z,101355.65
2019-05-22T19:46:34.315Z,101359.72
2019-05-22T19:49:51.715Z,101362.19
2019-05-22T19:53:18.692Z,101366.81
2019-05-22T19:56:23.433Z,101366.28
2019-05-22T19:59:29.763Z,101369.50
2019-05-22T20:02:36.530Z,101371.55
2019-05-22T20:05:53.342Z,101367.82
2019-05-22T20:09:11.783Z,101375.77
2019-05-22T20:12:19.075Z,101380.12
2019-05-22T20:15:36.507Z,101374.27
2019-05-22T20:18:44.119Z,101378.03
2019-05-22T20:21:51.935Z,101371.45
2019-05-22T20:25:12.730Z,101374.53
2019-05-22T20:28:20.146Z,101375.00
2019-05-22T20:31:28.327Z,101372.17
2019-05-22T20:34:36.033Z,101373.61
2019-05-22T20:37:45.222Z,101373.41
2019-05-22T20:40:52.631Z,101378.38
2019-05-22T20:44:11.155Z,101372.02
2019-05-22T20:47:33.314Z,101372.27
2019-05-22T20:50:40.844Z,101373.05
2019-05-22T20:53:58.615Z,101373.56
2019-05-22T20:57:07.984Z,101379.55
2019-05-22T21:00:25.814Z,101376.60
2019-05-22T21:03:33.289Z,101379.52
2019-05-22T21:06:46.330Z,101386.23
2019-05-22T21:09:53.881Z,101384.81
2019-05-22T21:13:01.345Z,101386.73
2019-05-22T21:16:09.322Z,101383.06
2019-05-22T21:19:18.368Z,101396.53
2019-05-22T21:22:25.362Z,101397.20
2019-05-22T21:25:32.868Z,101392.65
2019-05-22T21:28:40.774Z,101397.00
2019-05-22T21:31:48.182Z,101391.59
2019-05-22T21:35:05.858Z,101394.48
2019-05-22T21:38:13.521Z,101391.05
2019-05-22T21:41:30.547Z,101388.38
2019-05-22T21:44:36.895Z,101395.78
2019-05-22T21:47:44.563Z,101385.66
2019-05-22T21:50:52.005Z,101390.89
2019-05-22T21:54:09.514Z,101395.77
2019-05-22T21:57:16.998Z,101388.34
2019-05-22T22:00:47.423Z,101397.31
2019-05-22T22:04:04.515Z,101387.50
2019-05-22T22:07:11.576Z,101401.33
2019-05-22T22:10:20.484Z,101399.77
2019-05-22T22:13:28.015Z,101397.33
2019-05-22T22:16:35.427Z,101396.15
2019-05-22T22:19:42.892Z,101397.64
2019-05-22T22:22:59.812Z,101394.63
2019-05-22T22:26:25.807Z,101394.41
2019-05-22T22:29:32.408Z,101400.70
2019-05-22T22:32:40.838Z,101398.33
2019-05-22T22:35:48.518Z,101404.80
2019-05-22T22:38:56.954Z,101407.61
2019-05-22T22:42:04.312Z,101410.73
2019-05-22T22:45:20.073Z,101416.05
2019-05-22T22:48:32.049Z,101411.92
2019-05-22T22:51:37.654Z,101415.95
2019-05-22T22:54:45.405Z,101416.11
2019-05-22T22:58:16.018Z,101423.40
2019-05-22T23:01:25.611Z,101418.03
2019-05-22T23:04:34.123Z,101422.09
2019-05-22T23:07:51.244Z,101420.50
2019-05-22T23:10:58.747Z,101419.38
2019-05-22T23:14:06.337Z,101422.47
2019-05-22T23:17:13.965Z,101412.41
2019-05-22T23:20:35.905Z,101412.37
2019-05-22T23:23:42.221Z,101413.00
2019-05-22T23:26:49.846Z,101414.85
2019-05-22T23:30:10.915Z,101409.80
2019-05-22T23:33:19.229Z,101410.80
2019-05-22T23:36:25.487Z,101407.05
2019-05-22T23:39:33.584Z,101409.44
2019-05-22T23:42:51.375Z,101408.20
2019-05-22T23:45:58.869Z,101410.89
2019-05-22T23:49:06.219Z,101405.34
2019-05-22T23:52:15.404Z,101406.19
2019-05-22T23:55:21.379Z,101402.34
2019-05-22T23:58:52.306Z,101405.25
